Time;durP1;ratioP1;P1;durP2;ratioP2;P2;SDS_P1;SDS_P2;PMS_P1;PMS_P2;Temp;Humidity;BMP_temperature;BMP_pressure;BME280_temperature;BME280_humidity;BME280_pressure;Samples;Min_cycle;Max_cycle;Signal;HPM_P1;HPM_P2
2022/05/10 00:02:15;;;;;;;3.05;1.65;;;3.80;99.90;4.00;99037.00;;;;4861727;29;88726;-60
2022/05/10 00:04:44;;;;;;;;;;;3.80;99.90;4.00;99021.00;;;;4851396;29;87181;-59
2022/05/10 00:07:11;;;;;;;2.80;1.77;;;3.80;99.90;3.90;99018.00;;;;4864355;29;88096;-61
2022/05/10 00:09:37;;;;;;;4.20;1.70;;;3.80;99.90;3.90;99024.00;;;;4868158;29;87136;-59
2022/05/10 00:12:04;;;;;;;1.98;1.40;;;3.80;99.90;4.00;99011.00;;;;4866852;29;88060;-59
2022/05/10 00:14:30;;;;;;;2.75;1.60;;;3.90;99.90;4.10;99022.00;;;;4867446;29;88256;-61
2022/05/10 00:16:57;;;;;;;2.80;1.50;;;3.90;99.90;4.20;99028.00;;;;4868038;29;87026;-61
2022/05/10 00:19:27;;;;;;;2.03;1.40;;;4.00;99.90;4.10;99026.00;;;;4868394;29;86981;-61
2022/05/10 00:21:55;;;;;;;2.30;1.35;;;4.00;99.90;4.20;99021.00;;;;4858108;29;87646;-61
2022/05/10 00:24:21;;;;;;;3.70;1.25;;;4.00;99.90;4.10;99016.00;;;;4867891;29;87200;-61
2022/05/10 00:26:48;;;;;;;3.20;1.40;;;4.00;99.90;4.10;99016.00;;;;4861535;29;87559;-61
2022/05/10 00:29:16;;;;;;;2.28;1.33;;;4.00;99.90;4.20;99013.00;;;;4868848;29;86847;-61
2022/05/10 00:31:42;;;;;;;3.65;1.58;;;4.00;99.90;4.10;99019.00;;;;4865663;29;87564;-61
2022/05/10 00:34:09;;;;;;;2.78;1.30;;;3.90;99.90;4.10;99024.00;;;;4857550;29;87290;-61
2022/05/10 00:36:36;;;;;;;2.75;1.60;;;3.90;99.90;4.10;99008.00;;;;4867608;29;87953;-66
2022/05/10 00:39:02;;;;;;;3.15;1.45;;;4.00;99.90;4.00;99018.00;;;;4883985;28;86964;-62
2022/05/10 00:41:58;;;;;;;3.38;1.67;;;3.90;99.90;4.10;99007.00;;;;4894172;28;88686;-60
2022/05/10 00:44:34;;;;;;;3.53;1.48;;;3.90;99.90;4.10;99019.00;;;;4889365;28;87365;-61
2022/05/10 00:47:40;;;;;;;2.78;1.40;;;4.00;99.90;4.10;99005.00;;;;4882233;28;87003;-61
2022/05/10 00:50:32;;;;;;;2.65;1.10;;;4.00;99.90;4.10;98997.00;;;;4884896;28;87858;-61
2022/05/10 00:53:13;;;;;;;3.45;1.42;;;4.00;99.90;4.10;99003.00;;;;4858386;28;88911;-61
2022/05/10 00:56:06;;;;;;;2.28;1.20;;;3.90;99.90;4.00;99010.00;;;;4869889;28;87037;-61
2022/05/10 00:58:43;;;;;;;2.55;1.10;;;3.90;99.90;4.10;99000.00;;;;4881378;28;87137;-61
2022/05/10 01:01:16;;;;;;;3.03;1.33;;;3.90;99.90;3.90;98996.00;;;;4885382;28;87418;-61
2022/05/10 01:04:26;;;;;;;2.13;1.30;;;3.80;99.90;3.80;98992.00;;;;4889629;28;89158;-61
2022/05/10 01:07:08;;;;;;;2.42;1.30;;;3.70;99.90;3.80;98982.00;;;;4864413;28;88328;-61
2022/05/10 01:09:59;;;;;;;3.45;1.30;;;3.70;99.90;3.80;98982.00;;;;4887949;28;87156;-61
2022/05/10 01:12:44;;;;;;;3.88;1.50;;;3.70;99.90;3.70;98991.00;;;;4888091;28;87009;-61
2022/05/10 01:15:23;;;;;;;2.75;1.40;;;3.60;99.90;3.70;98988.00;;;;4877479;28;88640;-61
2022/05/10 01:17:54;;;;;;;2.22;1.27;;;3.60;99.90;3.60;98990.00;;;;4873516;28;88241;-61
2022/05/10 01:20:30;;;;;;;2.22;1.30;;;3.50;99.90;3.70;98983.00;;;;4870152;28;87505;-61
2022/05/10 01:23:37;;;;;;;3.47;1.20;;;3.50;99.90;3.60;98985.00;;;;4888445;28;86634;-61
2022/05/10 01:26:40;;;;;;;2.28;1.40;;;3.60;99.90;3.70;98982.00;;;;4888724;28;88152;-61
2022/05/10 01:29:16;;;;;;;2.25;1.45;;;3.50;99.90;3.70;98975.00;;;;4885902;28;86970;-61
2022/05/10 01:33:29;;;;;;;2.50;1.23;;;3.50;99.90;3.70;98977.00;;;;4861671;28;88427;-61
2022/05/10 01:34:38;;;;;;;5.85;1.40;;;3.60;99.90;3.60;98985.00;;;;4877982;28;87007;-61
2022/05/10 01:37:11;;;;;;;2.50;1.23;;;3.40;99.90;3.60;98991.00;;;;4892075;28;87032;-60
2022/05/10 01:39:55;;;;;;;3.28;1.30;;;3.50;99.90;3.70;98988.00;;;;4888383;28;87351;-60
2022/05/10 01:42:34;;;;;;;2.40;1.35;;;3.50;99.90;3.60;99005.00;;;;4883136;28;87065;-60
2022/05/10 01:45:43;;;;;;;2.85;1.65;;;3.50;99.90;3.60;98995.00;;;;4875053;28;87002;-59
2022/05/10 01:48:16;;;;;;;3.95;1.30;;;3.50;99.90;3.60;98995.00;;;;4872411;28;89039;-66
2022/05/10 01:51:14;;;;;;;2.28;1.30;;;3.50;99.90;3.60;98975.00;;;;4888652;28;88032;-66
2022/05/10 01:53:41;;;;;;;2.95;1.45;;;3.50;99.90;3.60;98983.00;;;;4883779;28;87488;-65
2022/05/10 01:56:17;;;;;;;2.97;1.33;;;3.60;99.90;3.70;98973.00;;;;4871224;28;87573;-66
2022/05/10 01:58:45;;;;;;;4.30;1.20;;;3.50;99.90;3.60;98968.00;;;;4891824;28;88640;-66
2022/05/10 02:01:17;;;;;;;2.70;1.25;;;3.60;99.90;3.60;98978.00;;;;4865987;28;88446;-68
2022/05/10 02:04:12;;;;;;;3.03;1.20;;;3.60;99.90;3.60;98984.00;;;;4882220;28;87331;-66
2022/05/10 02:06:54;;;;;;;2.58;1.20;;;3.60;99.90;3.70;98968.00;;;;4862697;28;87664;-66
2022/05/10 02:10:06;;;;;;;1.80;1.00;;;3.60;99.90;3.60;98974.00;;;;4869694;28;88963;-66
2022/05/10 02:12:43;;;;;;;2.17;1.00;;;3.50;99.90;3.70;98949.00;;;;4886250;28;87152;-66
2022/05/10 02:15:54;;;;;;;2.63;1.10;;;3.50;99.90;3.60;98970.00;;;;4894703;28;87828;-66
2022/05/10 02:18:25;;;;;;;3.70;1.23;;;3.60;99.90;3.70;98957.00;;;;4843840;28;87313;-66
2022/05/10 02:21:04;;;;;;;2.40;1.27;;;3.60;99.90;3.70;98960.00;;;;4874755;28;87360;-65
2022/05/10 02:24:03;;;;;;;2.72;1.42;;;3.60;99.90;3.80;98942.00;;;;4884160;28;88817;-66
2022/05/10 02:26:54;;;;;;;3.67;1.70;;;3.60;99.90;3.90;98947.00;;;;4892625;28;88281;-66
2022/05/10 02:29:28;;;;;;;3.38;1.10;;;3.70;99.90;4.20;98937.00;;;;4877666;28;86947;-65
2022/05/10 02:35:04;;;;;;;4.95;1.67;;;4.30;99.90;4.60;98954.00;;;;4888414;28;88544;-66
2022/05/10 02:37:31;;;;;;;3.63;1.35;;;4.50;99.90;4.80;98955.00;;;;4896072;28;87429;-65
2022/05/10 02:39:58;;;;;;;3.60;1.35;;;4.70;99.90;5.00;98950.00;;;;4889270;28;87014;-66
2022/05/10 02:42:26;;;;;;;2.75;1.23;;;4.80;99.90;5.10;98949.00;;;;4858684;28;88226;-67
2022/05/10 02:44:55;;;;;;;2.92;1.73;;;4.90;99.90;5.10;98939.00;;;;4887901;28;87552;-67
2022/05/10 02:47:36;;;;;;;2.80;1.27;;;4.90;99.90;5.10;98947.00;;;;4851077;28;87197;-67
2022/05/10 02:50:07;;;;;;;2.33;1.60;;;5.00;99.90;5.40;98947.00;;;;4891696;28;87142;-67
2022/05/10 02:52:34;;;;;;;2.53;1.30;;;5.10;99.90;5.10;98937.00;;;;4862788;28;90696;-61
2022/05/10 02:55:17;;;;;;;2.28;1.13;;;5.00;99.90;5.60;98926.00;;;;4875862;28;90758;-61
2022/05/10 02:57:47;;;;;;;3.42;1.35;;;5.30;99.90;5.60;98938.00;;;;4857708;28;87078;-61
2022/05/10 03:00:14;;;;;;;2.53;1.35;;;5.40;99.90;5.90;98932.00;;;;4879530;28;87163;-61
2022/05/10 03:02:46;;;;;;;4.38;1.52;;;5.50;99.90;5.60;98952.00;;;;4873193;28;88679;-61
2022/05/10 03:05:14;;;;;;;2.75;1.38;;;5.40;99.90;5.80;98928.00;;;;4877484;28;89757;-62
2022/05/10 03:07:40;;;;;;;2.33;1.10;;;5.40;99.90;6.10;98929.00;;;;4888513;28;87427;-61
2022/05/10 03:10:08;;;;;;;2.60;1.20;;;5.70;99.90;5.50;98942.00;;;;4889382;28;86375;-61
2022/05/10 03:12:35;;;;;;;1.52;0.93;;;5.40;99.90;5.50;98929.00;;;;4895059;28;87114;-62
2022/05/10 03:15:04;;;;;;;1.75;0.80;;;5.30;99.90;5.40;98924.00;;;;4889112;28;87483;-61
2022/05/10 03:17:30;;;;;;;3.35;1.10;;;5.20;99.90;5.70;98935.00;;;;4888522;28;88018;-61
2022/05/10 03:19:56;;;;;;;2.13;0.98;;;5.40;99.90;5.50;98944.00;;;;4889068;28;87119;-61
2022/05/10 03:22:22;;;;;;;2.60;0.95;;;5.40;99.90;5.60;98940.00;;;;4892289;28;88791;-60
2022/05/10 03:24:48;;;;;;;2.33;1.00;;;5.40;99.90;5.50;98928.00;;;;4892850;28;87140;-61
2022/05/10 03:27:16;;;;;;;2.33;0.90;;;5.30;99.90;5.70;98935.00;;;;4892433;28;86937;-60
2022/05/10 03:29:42;;;;;;;1.85;0.90;;;5.40;99.90;5.80;98927.00;;;;4877204;28;88325;-68
2022/05/10 03:32:10;;;;;;;2.30;1.10;;;5.60;99.90;5.80;98939.00;;;;4889986;28;88121;-61
2022/05/10 03:34:55;;;;;;;2.22;1.20;;;5.60;99.90;5.70;98933.00;;;;4892306;28;88460;-61
2022/05/10 03:37:28;;;;;;;2.60;1.08;;;5.50;99.90;5.50;98947.00;;;;4891193;28;87641;-61
2022/05/10 03:39:55;;;;;;;1.67;1.00;;;5.50;99.90;5.80;98939.00;;;;4887836;28;87123;-61
2022/05/10 03:42:22;;;;;;;2.25;1.00;;;5.60;99.90;6.20;98929.00;;;;4874532;28;88637;-62
2022/05/10 03:44:52;;;;;;;1.80;1.20;;;6.00;99.90;6.30;98931.00;;;;4872478;28;87103;-61
2022/05/10 03:47:23;;;;;;;3.50;1.00;;;6.00;99.90;6.70;98918.00;;;;4897480;28;87168;-61
2022/05/10 03:49:50;;;;;;;3.50;1.27;;;6.30;99.90;6.30;98905.00;;;;4874819;28;87071;-60
2022/05/10 03:52:16;;;;;;;2.08;1.23;;;6.10;99.90;5.90;98926.00;;;;4881544;28;90053;-59
2022/05/10 03:54:44;;;;;;;2.30;1.13;;;5.80;99.90;6.50;98917.00;;;;4895477;28;87338;-60
2022/05/10 03:57:11;;;;;;;1.83;1.10;;;6.20;99.90;6.60;98918.00;;;;4896055;28;87047;-61
2022/05/10 03:59:41;;;;;;;1.98;1.00;;;6.30;99.90;7.00;98915.00;;;;4891595;28;86351;-60
2022/05/10 04:02:12;;;;;;;2.13;1.20;;;6.60;99.90;6.90;98928.00;;;;4896365;28;87362;-60
2022/05/10 04:04:39;;;;;;;3.08;1.10;;;6.70;99.90;6.40;98928.00;;;;4893223;28;88088;-66
2022/05/10 04:07:06;;;;;;;3.83;0.90;;;6.30;99.90;6.70;98919.00;;;;4876650;28;88413;-60
2022/05/10 04:09:33;;;;;;;1.90;1.00;;;6.40;99.90;7.10;98920.00;;;;4880576;28;86927;-60
2022/05/10 04:12:00;;;;;;;3.33;1.10;;;6.80;99.90;7.40;98919.00;;;;4874660;28;87618;-60
2022/05/10 04:14:27;;;;;;;2.03;1.10;;;7.00;99.90;7.10;98904.00;;;;4887252;28;88490;-60
2022/05/10 04:16:53;;;;;;;1.70;0.90;;;6.80;99.90;7.00;98921.00;;;;4891810;28;87109;-60
2022/05/10 04:19:19;;;;;;;1.33;0.80;;;6.70;99.90;7.00;98905.00;;;;4875014;28;87106;-60
2022/05/10 04:21:45;;;;;;;2.97;0.80;;;6.70;99.90;7.30;98899.00;;;;4893077;28;87916;-60
2022/05/10 04:24:11;;;;;;;1.77;0.93;;;7.00;99.90;7.50;98910.00;;;;4890916;28;87340;-60
2022/05/10 04:26:38;;;;;;;4.20;1.05;;;7.20;99.90;7.70;98891.00;;;;4895183;28;88054;-60
2022/05/10 04:29:04;;;;;;;2.45;1.10;;;7.30;99.90;7.50;98903.00;;;;4895727;28;86982;-59
2022/05/10 04:31:31;;;;;;;2.58;0.80;;;7.20;99.90;7.60;98906.00;;;;4895186;28;89488;-61
2022/05/10 04:33:57;;;;;;;4.32;1.10;;;7.40;99.90;7.40;98921.00;;;;4894783;28;89360;-60
2022/05/10 04:36:25;;;;;;;1.30;0.90;;;7.20;99.90;7.30;98917.00;;;;4881089;28;87509;-60
2022/05/10 04:38:52;;;;;;;1.80;0.80;;;7.10;99.90;7.90;98912.00;;;;4885707;28;87470;-60
2022/05/10 04:41:28;;;;;;;2.35;1.08;;;7.40;99.90;8.20;98907.00;;;;4884761;28;87594;-60
2022/05/10 04:44:07;;;;;;;1.85;1.00;;;7.80;99.90;8.00;98909.00;;;;4885000;28;87224;-60
2022/05/10 04:46:36;;;;;;;2.63;0.90;;;7.90;99.90;8.20;98901.00;;;;4885985;28;87032;-60
2022/05/10 04:49:05;;;;;;;1.67;0.90;;;7.90;99.90;8.20;98903.00;;;;4885444;28;86379;-60
2022/05/10 04:51:33;;;;;;;2.78;0.90;;;7.90;99.90;8.10;98900.00;;;;4885488;28;88687;-61
2022/05/10 04:54:00;;;;;;;1.65;0.85;;;7.80;99.90;8.00;98899.00;;;;4885928;28;87310;-60
2022/05/10 04:56:27;;;;;;;1.75;1.02;;;7.70;99.90;8.50;98884.00;;;;4885474;28;87916;-60
2022/05/10 04:58:56;;;;;;;2.35;0.80;;;8.20;99.90;8.20;98897.00;;;;4885363;28;87055;-60
2022/05/10 05:01:28;;;;;;;1.45;0.70;;;8.00;99.90;8.30;98887.00;;;;4881659;28;88069;-60
2022/05/10 05:03:55;;;;;;;;;;;8.10;99.90;8.90;98891.00;;;;4885857;28;87436;-61
2022/05/10 05:06:26;;;;;;;2.63;1.00;;;8.40;99.90;8.60;98864.00;;;;4886504;28;87378;-60
2022/05/10 05:08:53;;;;;;;3.65;0.90;;;8.20;99.90;7.60;98886.00;;;;4886097;28;86955;-60
2022/05/10 05:11:19;;;;;;;3.00;0.93;;;7.50;99.90;8.10;98885.00;;;;4884409;28;88988;-60
2022/05/10 05:13:45;;;;;;;1.52;0.70;;;7.80;99.90;8.30;98892.00;;;;4885432;28;87482;-59
2022/05/10 05:16:11;;;;;;;0.98;0.70;;;8.00;99.90;8.30;98884.00;;;;4882515;28;87279;-60
2022/05/10 05:18:38;;;;;;;1.00;0.70;;;8.00;99.90;8.20;98894.00;;;;4884360;28;87924;-59
2022/05/10 05:21:04;;;;;;;3.30;0.95;;;8.00;99.90;8.50;98867.00;;;;4885020;28;88582;-60
2022/05/10 05:23:30;;;;;;;2.90;0.90;;;8.20;99.90;9.00;98858.00;;;;4884409;28;89463;-60
2022/05/10 05:25:56;;;;;;;1.20;0.80;;;8.60;99.90;8.90;98870.00;;;;4884832;28;88472;-60
2022/05/10 05:28:23;;;;;;;3.08;0.90;;;8.60;99.90;9.30;98879.00;;;;4884804;28;87134;-60
2022/05/10 05:30:50;;;;;;;3.22;0.90;;;8.90;99.90;8.40;98872.00;;;;4884994;28;88962;-60
2022/05/10 05:33:17;;;;;;;2.60;0.80;;;8.20;99.90;8.50;98850.00;;;;4885052;28;87681;-60
2022/05/10 05:35:43;;;;;;;3.35;0.90;;;8.20;99.90;8.70;98830.00;;;;4899940;28;87058;-60
2022/05/10 05:38:09;;;;;;;2.50;0.88;;;8.40;99.90;8.00;98849.00;;;;4886459;28;86421;-61
2022/05/10 05:40:37;;;;;;;1.73;0.70;;;7.90;99.90;7.90;98832.00;;;;4890422;28;87877;-60
2022/05/10 05:43:06;;;;;;;1.98;0.90;;;7.70;99.90;8.00;98834.00;;;;4888066;28;88448;-60
2022/05/10 05:45:33;;;;;;;5.78;1.13;;;7.70;99.90;8.10;98835.00;;;;4890244;28;88408;-61
2022/05/10 05:48:09;;;;;;;2.13;0.70;;;7.80;99.90;7.80;98847.00;;;;4892769;28;87445;-61
2022/05/10 05:50:36;;;;;;;3.53;1.08;;;7.50;99.90;7.90;98828.00;;;;4888190;28;87812;-61
2022/05/10 05:53:04;;;;;;;3.25;0.98;;;7.70;99.90;8.30;98827.00;;;;4893913;28;87505;-60
2022/05/10 05:55:30;;;;;;;1.45;0.70;;;8.10;99.90;8.20;98871.00;;;;4896071;28;87123;-60
2022/05/10 05:58:00;;;;;;;3.63;0.80;;;7.90;99.90;8.20;98811.00;;;;4876993;28;87109;-60
2022/05/10 06:00:28;;;;;;;2.08;0.80;;;7.90;99.90;8.30;98818.00;;;;4878512;28;87613;-60
2022/05/10 06:02:54;;;;;;;3.70;0.82;;;7.90;99.90;8.20;98878.00;;;;4889566;28;87245;-60
2022/05/10 06:05:24;;;;;;;2.97;0.80;;;7.90;99.90;8.40;98844.00;;;;4873403;28;87222;-59
2022/05/10 06:07:50;;;;;;;3.33;0.80;;;8.00;99.90;7.80;98827.00;;;;4875985;28;87762;-62
2022/05/10 06:10:16;;;;;;;4.35;1.50;;;7.70;99.90;8.30;98831.00;;;;4884499;28;88818;-61
2022/05/10 06:12:43;;;;;;;4.78;0.80;;;7.90;99.90;8.10;98818.00;;;;4887788;28;88179;-61
2022/05/10 06:15:13;;;;;;;2.15;0.60;;;7.70;99.90;7.70;98875.00;;;;4891746;28;87014;-61
2022/05/10 06:17:43;;;;;;;2.65;0.70;;;7.60;99.90;7.70;98840.00;;;;4892577;28;86979;-61
2022/05/10 06:20:13;;;;;;;1.88;0.55;;;7.50;99.90;7.40;98826.00;;;;4874825;28;87676;-60
2022/05/10 06:22:44;;;;;;;2.67;0.57;;;7.30;99.90;7.50;98808.00;;;;4892908;28;87478;-61
2022/05/10 06:25:13;;;;;;;5.43;0.75;;;7.40;99.90;7.80;98785.00;;;;4889822;28;87490;-61
2022/05/10 06:27:39;;;;;;;3.28;0.80;;;7.50;99.90;7.60;98813.00;;;;4892620;28;86226;-61
2022/05/10 06:30:06;;;;;;;4.00;0.85;;;7.40;99.90;7.60;98812.00;;;;4890654;28;87655;-60
2022/05/10 06:32:32;;;;;;;3.15;0.80;;;7.50;99.90;7.40;98852.00;;;;4893355;28;88523;-61
2022/05/10 06:35:00;;;;;;;1.17;0.68;;;7.30;99.90;7.40;98802.00;;;;4894670;28;88194;-61
2022/05/10 06:40:15;;;;;;;1.70;0.73;;;7.30;99.90;7.80;98779.00;;;;4886998;28;88206;-62
2022/05/10 06:42:41;;;;;;;4.47;1.00;;;7.60;99.90;7.80;98792.00;;;;4887671;28;87370;-60
2022/05/10 06:45:13;;;;;;;1.83;0.80;;;7.50;99.90;7.50;98778.00;;;;4894539;28;87880;-60
2022/05/10 06:47:41;;;;;;;1.63;0.63;;;7.40;99.90;7.70;98821.00;;;;4877020;28;87154;-61
2022/05/10 06:50:12;;;;;;;2.75;0.93;;;7.40;99.90;7.50;98874.00;;;;4888041;28;87520;-60
2022/05/10 06:52:40;;;;;;;3.67;0.80;;;7.40;99.90;7.80;98775.00;;;;4884998;28;87350;-60
2022/05/10 06:55:09;;;;;;;1.77;0.70;;;7.60;99.80;8.20;98867.00;;;;4878337;28;87585;-61
2022/05/10 06:57:35;;;;;;;3.67;0.98;;;7.90;99.90;7.70;98810.00;;;;4889128;28;87249;-61
2022/05/10 07:00:02;;;;;;;2.55;0.70;;;7.60;99.90;8.20;98785.00;;;;4889345;28;89635;-61
2022/05/10 07:02:30;;;;;;;1.65;0.55;;;7.90;99.90;8.00;98775.00;;;;4874488;28;88395;-61
2022/05/10 07:04:56;;;;;;;2.67;0.80;;;7.70;98.90;8.20;98759.00;;;;4885722;28;87330;-61
2022/05/10 07:07:23;;;;;;;2.15;0.80;;;7.90;99.90;8.20;98836.00;;;;4879547;28;87057;-62
2022/05/10 07:09:49;;;;;;;3.88;0.80;;;7.80;99.90;8.20;98782.00;;;;4892428;28;87512;-61
2022/05/10 07:12:15;;;;;;;2.30;0.60;;;7.80;99.90;8.40;98762.00;;;;4884559;28;87572;-61
2022/05/10 07:14:45;;;;;;;3.70;0.80;;;8.10;99.90;8.60;98748.00;;;;4889131;28;87088;-61
2022/05/10 07:17:12;;;;;;;2.90;0.95;;;8.20;99.90;8.10;98782.00;;;;4887314;28;86273;-61
2022/05/10 07:19:38;;;;;;;3.60;0.85;;;7.90;99.50;8.20;98763.00;;;;4885653;28;87526;-61
2022/05/10 07:22:05;;;;;;;3.55;0.77;;;7.90;99.90;8.00;98749.00;;;;4887694;28;87310;-61
2022/05/10 07:24:31;;;;;;;3.08;0.90;;;7.80;99.60;8.30;98757.00;;;;4888028;28;88105;-62
2022/05/10 07:26:57;;;;;;;3.50;0.70;;;7.90;99.60;8.30;98747.00;;;;4893090;28;87096;-61
2022/05/10 07:29:24;;;;;;;5.82;0.98;;;8.00;99.80;8.00;98751.00;;;;4889388;28;87553;-61
2022/05/10 07:31:50;;;;;;;2.67;0.70;;;7.80;99.40;8.10;98768.00;;;;4887553;28;88468;-61
2022/05/10 07:34:16;;;;;;;3.45;0.77;;;7.80;97.60;7.80;98821.00;;;;4886328;28;87283;-60
2022/05/10 07:36:42;;;;;;;6.60;1.00;;;7.60;97.00;8.20;98744.00;;;;4890233;28;88036;-60
2022/05/10 07:39:14;;;;;;;3.38;0.90;;;7.90;96.90;8.00;98776.00;;;;4876710;28;87003;-61
2022/05/10 07:41:41;;;;;;;2.03;0.85;;;7.80;95.20;8.10;98764.00;;;;4884564;28;88404;-60
2022/05/10 07:44:09;;;;;;;5.40;0.68;;;7.90;93.20;8.00;98773.00;;;;4884847;28;88045;-60
2022/05/10 07:46:36;;;;;;;1.13;0.55;;;7.80;90.80;8.20;98734.00;;;;4888645;28;87856;-61
2022/05/10 07:49:03;;;;;;;3.40;0.63;;;7.90;92.60;8.30;98751.00;;;;4888286;28;88746;-60
2022/05/10 07:51:30;;;;;;;2.05;0.70;;;8.00;92.60;8.50;98725.00;;;;4887861;28;89523;-61
2022/05/10 07:53:56;;;;;;;4.72;1.08;;;8.10;92.90;8.90;98738.00;;;;4890916;28;86980;-61
2022/05/10 07:56:24;;;;;;;2.47;1.00;;;8.40;92.70;8.90;98719.00;;;;4888826;28;88646;-62
2022/05/10 07:58:55;;;;;;;1.80;0.75;;;8.50;92.40;8.60;98744.00;;;;4873330;28;88191;-62
2022/05/10 08:01:22;;;;;;;5.18;0.80;;;8.40;93.10;8.00;98752.00;;;;4888040;28;87612;-61
2022/05/10 08:03:48;;;;;;;3.17;0.60;;;7.90;92.40;8.30;98730.00;;;;4889721;28;87058;-61
2022/05/10 08:06:16;;;;;;;5.07;0.80;;;8.00;93.70;8.20;98739.00;;;;4886738;28;86438;-61
2022/05/10 08:08:42;;;;;;;0.93;0.60;;;8.00;93.90;8.60;98713.00;;;;4886336;28;88559;-61
2022/05/10 08:11:09;;;;;;;3.80;1.13;;;8.30;93.90;8.80;98732.00;;;;4879409;28;87596;-62
2022/05/10 08:13:37;;;;;;;6.75;0.77;;;8.50;93.90;8.90;98718.00;;;;4888584;28;88048;-61
2022/05/10 08:16:04;;;;;;;3.72;0.82;;;8.60;93.80;8.90;98710.00;;;;4887699;28;87005;-60
2022/05/10 08:18:30;;;;;;;5.20;0.95;;;8.50;93.20;8.60;98724.00;;;;4884400;28;87934;-60
2022/05/10 08:20:59;;;;;;;3.03;0.80;;;8.30;93.30;8.40;98724.00;;;;4888405;28;87746;-61
2022/05/10 08:23:29;;;;;;;5.90;1.15;;;8.10;93.90;8.10;98712.00;;;;4886268;28;87133;-62
2022/05/10 08:25:57;;;;;;;3.78;0.90;;;7.80;92.10;8.20;98702.00;;;;4884316;28;87677;-60
2022/05/10 08:28:26;;;;;;;2.53;0.73;;;7.90;93.30;8.30;98686.00;;;;4881575;28;87097;-61
2022/05/10 08:30:53;;;;;;;2.97;0.98;;;8.00;93.30;7.90;98746.00;;;;4882341;28;87540;-61
2022/05/10 08:33:24;;;;;;;2.85;0.70;;;7.80;92.10;8.20;98700.00;;;;4886720;28;87086;-60
2022/05/10 08:35:53;;;;;;;3.17;0.82;;;8.00;92.70;8.30;98673.00;;;;4889997;28;87270;-61
2022/05/10 08:38:26;;;;;;;2.72;0.77;;;8.10;92.00;8.20;98680.00;;;;4884686;28;88709;-61
2022/05/10 08:41:24;;;;;;;2.85;0.70;;;8.10;91.20;8.50;98701.00;;;;4884586;28;88534;-61
2022/05/10 08:44:16;;;;;;;1.60;0.73;;;8.50;91.70;8.90;98681.00;;;;4884548;28;87156;-61
2022/05/10 08:46:49;;;;;;;4.03;0.90;;;8.60;92.00;8.80;98672.00;;;;4885062;28;87021;-60
2022/05/10 08:49:31;;;;;;;3.93;0.97;;;8.50;91.30;8.50;98649.00;;;;4887675;28;88766;-60
2022/05/10 08:51:57;;;;;;;5.45;0.70;;;8.30;91.20;8.60;98648.00;;;;4887179;28;88445;-61
2022/05/10 08:54:25;;;;;;;5.72;1.08;;;8.30;91.50;8.30;98674.00;;;;4885342;28;87039;-59
2022/05/10 08:57:03;;;;;;;2.35;1.00;;;8.20;91.30;8.40;98656.00;;;;4884197;28;86584;-61
2022/05/10 09:00:00;;;;;;;1.45;0.75;;;8.20;91.80;8.90;98681.00;;;;4885693;28;87709;-60
2022/05/10 09:02:47;;;;;;;1.63;0.77;;;8.50;92.20;8.90;98669.00;;;;4866836;28;90041;-61
2022/05/10 09:05:30;;;;;;;2.03;1.05;;;8.50;89.80;8.80;98692.00;;;;4883735;28;88397;-60
2022/05/10 09:08:11;;;;;;;2.78;0.80;;;8.40;90.10;8.60;98684.00;;;;4884676;28;87393;-60
2022/05/10 09:10:46;;;;;;;3.10;0.73;;;8.40;90.30;8.70;98632.00;;;;4884782;28;87708;-60
2022/05/10 09:13:16;;;;;;;4.03;0.77;;;8.40;90.40;8.60;98709.00;;;;4887105;28;87275;-60
2022/05/10 09:16:02;;;;;;;5.20;0.70;;;8.40;89.20;8.60;98643.00;;;;4887994;28;87022;-60
2022/05/10 09:18:39;;;;;;;2.22;0.90;;;8.30;86.00;8.80;98666.00;;;;4887470;28;87494;-61
2022/05/10 09:21:28;;;;;;;7.85;1.23;;;8.40;83.30;8.60;98658.00;;;;4894819;28;87567;-62
2022/05/10 09:25:02;;;;;;;1.50;0.70;;;8.40;80.10;8.90;98632.00;;;;4883373;28;87480;-62
2022/05/10 09:27:34;;;;;;;1.52;0.80;;;8.50;76.80;8.80;98681.00;;;;4817009;29;87763;-61
2022/05/10 09:30:01;;;;;;;2.55;0.80;;;8.50;72.80;9.10;98628.00;;;;4831017;29;87551;-60
2022/05/10 09:35:27;;;;;;;3.55;1.20;;;8.70;74.40;8.80;98674.00;;;;4877864;28;88382;-60
2022/05/10 09:38:00;;;;;;;3.15;0.90;;;8.60;73.50;8.90;98622.00;;;;4866620;28;87004;-60
2022/05/10 09:40:27;;;;;;;4.50;1.13;;;8.60;74.00;9.00;98623.00;;;;4839918;29;90076;-60
2022/05/10 09:43:32;;;;;;;2.92;0.80;;;8.70;74.80;9.20;98615.00;;;;4860540;29;88609;-62
2022/05/10 09:46:13;;;;;;;5.00;0.70;;;8.80;72.90;9.20;98659.00;;;;4865992;29;88217;-63
2022/05/10 09:48:42;;;;;;;2.13;0.73;;;8.90;73.10;9.10;98654.00;;;;4859100;28;88266;-61
2022/05/10 09:51:35;;;;;;;3.83;0.95;;;8.70;72.90;9.10;98661.00;;;;4865988;29;86389;-62
2022/05/10 09:54:04;;;;;;;1.42;0.80;;;8.70;72.30;8.90;98701.00;;;;4847835;29;87643;-61
2022/05/10 09:56:40;;;;;;;1.58;0.60;;;8.70;72.00;9.20;98691.00;;;;4847732;29;89116;-61
2022/05/10 09:59:12;;;;;;;4.22;1.13;;;8.80;72.70;9.10;98656.00;;;;4849750;29;88041;-61
2022/05/10 10:01:46;;;;;;;5.00;0.80;;;8.70;74.00;8.80;98664.00;;;;4866038;29;87443;-61
2022/05/10 10:04:32;;;;;;;7.57;1.17;;;8.50;73.50;8.60;98699.00;;;;4866436;29;87776;-61
2022/05/10 10:07:13;;;;;;;8.07;1.10;;;8.50;75.00;8.50;98697.00;;;;4865343;29;87296;-61
2022/05/10 10:09:48;;;;;;;4.60;1.00;;;8.30;76.10;8.90;98658.00;;;;4853749;28;87099;-61
2022/05/10 10:12:35;;;;;;;1.27;0.70;;;8.50;76.00;8.50;98695.00;;;;4863821;29;87072;-61
2022/05/10 10:15:21;;;;;;;3.78;0.98;;;8.30;79.00;8.20;98688.00;;;;4849674;29;88856;-62
2022/05/10 10:18:01;;;;;;;4.35;0.93;;;8.10;81.00;8.20;98654.00;;;;4862009;29;88543;-62
2022/05/10 10:20:47;;;;;;;2.75;1.10;;;8.10;79.60;8.70;98692.00;;;;5024936;28;82107;-61
2022/05/10 10:23:38;;;;;;;3.83;0.90;;;8.30;81.00;8.60;98680.00;;;;4998091;28;82562;-60
2022/05/10 10:26:34;;;;;;;4.05;0.80;;;8.30;81.80;8.60;98642.00;;;;4999013;28;81602;-59
2022/05/10 10:29:10;;;;;;;4.45;1.10;;;8.40;78.70;8.70;98643.00;;;;4997924;28;82265;-61
2022/05/10 10:31:54;;;;;;;8.43;1.15;;;8.40;81.00;8.30;98665.00;;;;4997996;28;81709;-60
2022/05/10 10:34:52;;;;;;;7.55;1.13;;;8.20;83.30;8.30;98629.00;;;;4997283;28;81568;-60
2022/05/10 10:37:47;;;;;;;2.58;1.10;;;8.10;84.70;8.30;98649.00;;;;4996554;28;81525;-61
2022/05/10 10:43:08;;;;;;;1.88;0.63;;;8.20;84.00;8.70;98675.00;;;;5061662;27;82121;-61
2022/05/10 10:45:47;;;;;;;;;;;8.40;83.80;8.40;98680.00;;;;5020107;28;81764;-61
2022/05/10 10:48:45;;;;;;;3.33;1.00;;;8.30;85.30;8.40;98664.00;;;;5032190;27;82487;-61
2022/05/10 10:51:12;;;;;;;4.30;1.00;;;8.10;86.50;8.30;98642.00;;;;5037036;28;82428;-61
2022/05/10 10:53:40;;;;;;;5.78;1.00;;;8.10;90.00;8.30;98707.00;;;;5038680;28;82193;-61
2022/05/10 10:56:37;;;;;;;2.42;1.23;;;8.00;90.00;8.30;98686.00;;;;5054602;27;82874;-61
2022/05/10 10:59:51;;;;;;;1.38;0.60;;;8.00;90.80;7.90;98762.00;;;;5038866;28;81775;-62
2022/05/10 11:02:43;;;;;;;1.67;0.80;;;7.80;91.70;8.10;98632.00;;;;5036994;28;81675;-61
2022/05/10 11:05:38;;;;;;;3.35;1.10;;;7.90;91.50;8.20;98642.00;;;;5038247;28;82426;-62
2022/05/10 11:08:18;;;;;;;6.18;1.38;;;8.00;92.50;8.20;98638.00;;;;5035865;28;82477;-62
2022/05/10 11:11:25;;;;;;;7.90;1.35;;;7.90;92.80;8.30;98651.00;;;;5037213;28;81531;-59
2022/05/10 11:14:20;;;;;;;5.65;1.10;;;8.00;92.90;8.40;98658.00;;;;5039271;28;82104;-60
2022/05/10 11:17:23;;;;;;;6.00;1.27;;;8.10;92.80;8.30;98664.00;;;;5028932;28;84808;-59
2022/05/10 11:20:35;;;;;;;3.63;1.05;;;8.10;91.50;8.30;98649.00;;;;5023850;27;82804;-61
2022/05/10 11:23:08;;;;;;;5.75;1.00;;;8.00;91.90;8.20;98677.00;;;;5038468;28;82573;-60
2022/05/10 11:26:22;;;;;;;6.30;1.13;;;8.00;93.40;8.20;98694.00;;;;5039310;28;82245;-60
2022/05/10 11:28:51;;;;;;;5.03;1.17;;;7.90;94.40;8.10;98703.00;;;;5055345;27;81629;-61
2022/05/10 11:31:32;;;;;;;3.42;1.10;;;7.90;95.80;7.70;98729.00;;;;5039423;27;82210;-59
2022/05/10 11:35:00;;;;;;;4.03;1.13;;;7.50;99.10;7.40;98713.00;;;;5034488;28;81931;-60
2022/05/10 11:37:43;;;;;;;5.38;1.00;;;7.20;99.90;7.40;98695.00;;;;5039508;28;82310;-60
2022/05/10 11:40:47;;;;;;;4.68;0.90;;;7.20;99.90;7.50;98724.00;;;;5035538;28;82241;-60
2022/05/10 11:43:47;;;;;;;3.95;1.00;;;7.20;99.90;7.40;98713.00;;;;5036602;28;82663;-60
2022/05/10 11:46:40;;;;;;;4.10;0.90;;;7.30;99.90;7.30;98756.00;;;;5041415;27;81496;-60
2022/05/10 11:49:49;;;;;;;2.60;0.93;;;7.20;99.90;6.40;98823.00;;;;5039737;28;82429;-59
2022/05/10 11:53:06;;;;;;;2.22;1.10;;;6.50;99.90;5.90;98710.00;;;;5033996;28;82912;-61
2022/05/10 11:56:00;;;;;;;4.57;1.50;;;5.80;99.90;5.50;98659.00;;;;5025338;28;81873;-59
2022/05/10 11:58:29;;;;;;;2.33;1.00;;;5.40;99.90;6.20;98838.00;;;;5018737;28;83336;-61